sensor_id;sensor_type;location;lat;lon;timestamp;P1;P2;P0
76304;PMS7003;65111;50.536;19.204;2023-04-03T00:01:22;3.00;1.00;1.00
76304;PMS7003;65111;50.536;19.204;2023-04-03T00:03:48;1.00;1.00;1.00
76304;PMS7003;65111;50.536;19.204;2023-04-03T00:06:15;3.00;3.00;3.00
76304;PMS7003;65111;50.536;19.204;2023-04-03T00:08:41;4.00;4.00;3.00
76304;PMS7003;65111;50.536;19.204;2023-04-03T00:11:07;2.33;0.00;0.00
76304;PMS7003;65111;50.536;19.204;2023-04-03T00:13:35;1.00;1.00;1.00
76304;PMS7003;65111;50.536;19.204;2023-04-03T00:16:01;1.00;1.00;1.00
76304;PMS7003;65111;50.536;19.204;2023-04-03T00:18:28;2.67;2.33;2.33
76304;PMS7003;65111;50.536;19.204;2023-04-03T00:20:54;3.00;3.00;1.00
76304;PMS7003;65111;50.536;19.204;2023-04-03T00:23:20;7.00;4.00;4.00
76304;PMS7003;65111;50.536;19.204;2023-04-03T00:25:49;3.67;3.33;3.00
76304;PMS7003;65111;50.536;19.204;2023-04-03T00:28:18;3.00;3.00;1.00
76304;PMS7003;65111;50.536;19.204;2023-04-03T00:30:44;10.00;6.00;4.00
76304;PMS7003;65111;50.536;19.204;2023-04-03T00:33:11;4.00;3.00;1.00
76304;PMS7003;65111;50.536;19.204;2023-04-03T00:35:38;6.33;6.00;3.00
76304;PMS7003;65111;50.536;19.204;2023-04-03T00:38:05;9.00;7.00;4.00
76304;PMS7003;65111;50.536;19.204;2023-04-03T00:40:36;9.00;7.00;3.00
76304;PMS7003;65111;50.536;19.204;2023-04-03T00:43:10;9.50;6.00;4.00
76304;PMS7003;65111;50.536;19.204;2023-04-03T00:45:41;5.33;5.33;3.67
76304;PMS7003;65111;50.536;19.204;2023-04-03T00:48:17;9.00;9.00;4.00
76304;PMS7003;65111;50.536;19.204;2023-04-03T00:50:54;4.00;4.00;3.00
76304;PMS7003;65111;50.536;19.204;2023-04-03T00:53:26;5.00;5.00;5.00
76304;PMS7003;65111;50.536;19.204;2023-04-03T00:55:56;6.00;6.00;4.00
76304;PMS7003;65111;50.536;19.204;2023-04-03T00:58:25;7.00;6.67;4.67
76304;PMS7003;65111;50.536;19.204;2023-04-03T01:00:58;7.00;7.00;4.00
76304;PMS7003;65111;50.536;19.204;2023-04-03T01:03:30;3.67;3.67;3.00
76304;PMS7003;65111;50.536;19.204;2023-04-03T01:05:57;7.00;7.00;4.00
76304;PMS7003;65111;50.536;19.204;2023-04-03T01:08:23;4.00;4.00;3.50
76304;PMS7003;65111;50.536;19.204;2023-04-03T01:10:50;6.00;6.00;5.00
76304;PMS7003;65111;50.536;19.204;2023-04-03T01:13:23;7.00;4.00;4.00
76304;PMS7003;65111;50.536;19.204;2023-04-03T01:15:49;7.00;4.00;3.00
76304;PMS7003;65111;50.536;19.204;2023-04-03T01:18:16;1.00;1.00;1.00
76304;PMS7003;65111;50.536;19.204;2023-04-03T01:26:37;7.00;6.00;6.00
76304;PMS7003;65111;50.536;19.204;2023-04-03T01:29:04;4.00;4.00;3.00
76304;PMS7003;65111;50.536;19.204;2023-04-03T01:31:31;6.00;6.00;4.00
76304;PMS7003;65111;50.536;19.204;2023-04-03T01:34:19;8.33;5.33;3.67
76304;PMS7003;65111;50.536;19.204;2023-04-03T01:36:45;4.00;4.00;3.00
76304;PMS7003;65111;50.536;19.204;2023-04-03T01:39:11;9.50;9.00;6.00
76304;PMS7003;65111;50.536;19.204;2023-04-03T01:41:38;6.50;6.50;5.00
76304;PMS7003;65111;50.536;19.204;2023-04-03T01:44:04;4.00;4.00;3.00
76304;PMS7003;65111;50.536;19.204;2023-04-03T01:46:30;4.00;3.00;3.00
76304;PMS7003;65111;50.536;19.204;2023-04-03T01:48:57;3.00;3.00;2.00
76304;PMS7003;65111;50.536;19.204;2023-04-03T01:51:23;3.00;1.00;1.00
76304;PMS7003;65111;50.536;19.204;2023-04-03T01:53:49;1.00;1.00;0.00
76304;PMS7003;65111;50.536;19.204;2023-04-03T01:56:17;4.00;3.00;1.00
76304;PMS7003;65111;50.536;19.204;2023-04-03T01:58:43;6.00;5.00;3.00
76304;PMS7003;65111;50.536;19.204;2023-04-03T02:01:09;4.00;3.00;1.00
76304;PMS7003;65111;50.536;19.204;2023-04-03T02:03:35;1.00;1.00;1.00
76304;PMS7003;65111;50.536;19.204;2023-04-03T02:06:02;4.00;2.33;1.00
76304;PMS7003;65111;50.536;19.204;2023-04-03T02:08:28;2.33;2.33;1.00
76304;PMS7003;65111;50.536;19.204;2023-04-03T02:10:54;4.00;3.00;3.00
76304;PMS7003;65111;50.536;19.204;2023-04-03T02:13:20;6.00;3.00;3.00
76304;PMS7003;65111;50.536;19.204;2023-04-03T02:15:46;4.00;4.00;3.00
76304;PMS7003;65111;50.536;19.204;2023-04-03T02:18:13;3.00;3.00;1.00
76304;PMS7003;65111;50.536;19.204;2023-04-03T02:20:39;3.00;3.00;1.00
76304;PMS7003;65111;50.536;19.204;2023-04-03T02:23:05;4.67;4.67;1.67
76304;PMS7003;65111;50.536;19.204;2023-04-03T02:25:32;6.00;6.00;4.00
76304;PMS7003;65111;50.536;19.204;2023-04-03T02:27:59;6.33;6.33;4.00
76304;PMS7003;65111;50.536;19.204;2023-04-03T02:30:25;4.00;3.00;3.00
76304;PMS7003;65111;50.536;19.204;2023-04-03T02:32:51;6.00;4.00;3.00
76304;PMS7003;65111;50.536;19.204;2023-04-03T02:35:18;4.00;4.00;3.00
76304;PMS7003;65111;50.536;19.204;2023-04-03T02:37:43;4.00;4.00;3.50
76304;PMS7003;65111;50.536;19.204;2023-04-03T02:40:09;4.00;4.00;3.00
76304;PMS7003;65111;50.536;19.204;2023-04-03T02:42:37;5.00;3.50;3.00
76304;PMS7003;65111;50.536;19.204;2023-04-03T02:45:03;5.00;4.00;3.00
76304;PMS7003;65111;50.536;19.204;2023-04-03T02:47:30;3.33;3.33;3.00
76304;PMS7003;65111;50.536;19.204;2023-04-03T02:49:56;4.00;3.00;1.00
76304;PMS7003;65111;50.536;19.204;2023-04-03T02:52:22;2.00;1.00;1.00
76304;PMS7003;65111;50.536;19.204;2023-04-03T02:54:48;0.00;0.00;0.00
76304;PMS7003;65111;50.536;19.204;2023-04-03T02:57:14;1.00;1.00;1.00
76304;PMS7003;65111;50.536;19.204;2023-04-03T02:59:40;3.00;3.00;1.00
76304;PMS7003;65111;50.536;19.204;2023-04-03T03:02:07;3.00;3.00;1.00
76304;PMS7003;65111;50.536;19.204;2023-04-03T03:04:34;3.00;3.00;3.00
76304;PMS7003;65111;50.536;19.204;2023-04-03T03:07:01;3.00;3.00;1.00
76304;PMS7003;65111;50.536;19.204;2023-04-03T03:09:27;3.00;1.00;1.00
76304;PMS7003;65111;50.536;19.204;2023-04-03T03:11:55;3.00;3.00;1.00
76304;PMS7003;65111;50.536;19.204;2023-04-03T03:14:22;0.00;0.00;0.00
76304;PMS7003;65111;50.536;19.204;2023-04-03T03:16:48;3.33;3.33;3.00
76304;PMS7003;65111;50.536;19.204;2023-04-03T03:19:15;3.00;3.00;1.00
76304;PMS7003;65111;50.536;19.204;2023-04-03T03:21:41;0.00;0.00;0.00
76304;PMS7003;65111;50.536;19.204;2023-04-03T03:24:07;0.00;0.00;0.00
76304;PMS7003;65111;50.536;19.204;2023-04-03T03:26:33;0.33;0.33;0.33
76304;PMS7003;65111;50.536;19.204;2023-04-03T03:29:00;1.00;0.00;0.00
76304;PMS7003;65111;50.536;19.204;2023-04-03T03:31:26;0.00;0.00;0.00
76304;PMS7003;65111;50.536;19.204;2023-04-03T03:33:52;1.00;1.00;1.00
76304;PMS7003;65111;50.536;19.204;2023-04-03T03:36:18;1.00;1.00;0.50
76304;PMS7003;65111;50.536;19.204;2023-04-03T03:38:45;3.00;1.00;1.00
76304;PMS7003;65111;50.536;19.204;2023-04-03T03:41:11;4.00;0.67;0.00
76304;PMS7003;65111;50.536;19.204;2023-04-03T03:43:36;4.00;1.00;1.00
76304;PMS7003;65111;50.536;19.204;2023-04-03T03:46:03;3.33;2.33;1.00
76304;PMS7003;65111;50.536;19.204;2023-04-03T03:48:29;2.00;1.00;0.50
76304;PMS7003;65111;50.536;19.204;2023-04-03T03:50:54;1.00;1.00;1.00
76304;PMS7003;65111;50.536;19.204;2023-04-03T03:53:21;2.00;2.00;1.00
76304;PMS7003;65111;50.536;19.204;2023-04-03T03:55:47;0.00;0.00;0.00
76304;PMS7003;65111;50.536;19.204;2023-04-03T03:58:13;0.00;0.00;0.00
76304;PMS7003;65111;50.536;19.204;2023-04-03T04:00:39;0.33;0.33;0.00
76304;PMS7003;65111;50.536;19.204;2023-04-03T04:03:05;1.00;1.00;1.00
76304;PMS7003;65111;50.536;19.204;2023-04-03T04:05:32;3.00;0.00;0.00
76304;PMS7003;65111;50.536;19.204;2023-04-03T04:07:59;1.67;0.67;0.33
76304;PMS7003;65111;50.536;19.204;2023-04-03T04:10:25;1.00;1.00;0.00
76304;PMS7003;65111;50.536;19.204;2023-04-03T04:12:51;1.00;1.00;0.00
76304;PMS7003;65111;50.536;19.204;2023-04-03T04:15:17;1.00;1.00;1.00
76304;PMS7003;65111;50.536;19.204;2023-04-03T04:17:43;0.00;0.00;0.00
76304;PMS7003;65111;50.536;19.204;2023-04-03T04:20:10;1.00;1.00;0.00
76304;PMS7003;65111;50.536;19.204;2023-04-03T04:22:37;4.00;4.00;3.00
76304;PMS7003;65111;50.536;19.204;2023-04-03T04:25:04;1.00;1.00;1.00
76304;PMS7003;65111;50.536;19.204;2023-04-03T04:27:30;3.00;3.00;1.00
76304;PMS7003;65111;50.536;19.204;2023-04-03T04:29:56;2.00;2.00;1.00
76304;PMS7003;65111;50.536;19.204;2023-04-03T04:32:22;1.00;0.00;0.00
76304;PMS7003;65111;50.536;19.204;2023-04-03T04:34:48;0.50;0.50;0.00
76304;PMS7003;65111;50.536;19.204;2023-04-03T04:37:15;1.00;1.00;1.00
76304;PMS7003;65111;50.536;19.204;2023-04-03T04:39:41;1.00;1.00;0.33
76304;PMS7003;65111;50.536;19.204;2023-04-03T04:42:07;3.50;1.00;1.00
76304;PMS7003;65111;50.536;19.204;2023-04-03T04:44:41;1.00;1.00;1.00
76304;PMS7003;65111;50.536;19.204;2023-04-03T04:47:07;1.00;1.00;0.50
76304;PMS7003;65111;50.536;19.204;2023-04-03T04:49:33;1.00;1.00;1.00
76304;PMS7003;65111;50.536;19.204;2023-04-03T04:51:59;0.33;0.33;0.00
76304;PMS7003;65111;50.536;19.204;2023-04-03T04:54:25;1.00;1.00;1.00
76304;PMS7003;65111;50.536;19.204;2023-04-03T04:56:51;1.00;1.00;1.00
76304;PMS7003;65111;50.536;19.204;2023-04-03T04:59:17;0.50;0.50;0.00
76304;PMS7003;65111;50.536;19.204;2023-04-03T05:01:43;1.00;1.00;1.00
76304;PMS7003;65111;50.536;19.204;2023-04-03T05:04:10;1.00;1.00;1.00
76304;PMS7003;65111;50.536;19.204;2023-04-03T05:06:38;2.33;0.67;0.00
76304;PMS7003;65111;50.536;19.204;2023-04-03T05:09:04;0.00;0.00;0.00
76304;PMS7003;65111;50.536;19.204;2023-04-03T05:11:30;3.00;1.00;0.00
76304;PMS7003;65111;50.536;19.204;2023-04-03T05:13:56;1.00;1.00;0.00
76304;PMS7003;65111;50.536;19.204;2023-04-03T05:16:23;1.00;1.00;0.00
76304;PMS7003;65111;50.536;19.204;2023-04-03T05:18:49;3.00;3.00;1.00
76304;PMS7003;65111;50.536;19.204;2023-04-03T05:21:15;0.00;0.00;0.00
76304;PMS7003;65111;50.536;19.204;2023-04-03T05:23:41;1.00;1.00;1.00
76304;PMS7003;65111;50.536;19.204;2023-04-03T05:26:07;0.00;0.00;0.00
76304;PMS7003;65111;50.536;19.204;2023-04-03T05:28:34;2.00;2.00;1.00
76304;PMS7003;65111;50.536;19.204;2023-04-03T05:31:00;0.33;0.33;0.00
76304;PMS7003;65111;50.536;19.204;2023-04-03T05:33:27;2.00;1.00;0.00
76304;PMS7003;65111;50.536;19.204;2023-04-03T05:35:53;0.00;0.00;0.00
76304;PMS7003;65111;50.536;19.204;2023-04-03T05:38:20;0.00;0.00;0.00
76304;PMS7003;65111;50.536;19.204;2023-04-03T05:40:46;1.00;0.00;0.00
76304;PMS7003;65111;50.536;19.204;2023-04-03T05:43:12;3.00;3.00;1.67
76304;PMS7003;65111;50.536;19.204;2023-04-03T05:45:38;3.00;0.00;0.00
76304;PMS7003;65111;50.536;19.204;2023-04-03T05:48:04;1.00;1.00;0.50
76304;PMS7003;65111;50.536;19.204;2023-04-03T05:50:30;1.00;1.00;0.00
76304;PMS7003;65111;50.536;19.204;2023-04-03T05:52:57;0.00;0.00;0.00
76304;PMS7003;65111;50.536;19.204;2023-04-03T05:55:24;3.00;1.00;1.00
76304;PMS7003;65111;50.536;19.204;2023-04-03T05:57:51;1.00;1.00;0.00
76304;PMS7003;65111;50.536;19.204;2023-04-03T06:00:17;0.67;0.67;0.33
76304;PMS7003;65111;50.536;19.204;2023-04-03T06:02:43;1.00;1.00;1.00
76304;PMS7003;65111;50.536;19.204;2023-04-03T06:05:10;1.67;1.00;1.00
76304;PMS7003;65111;50.536;19.204;2023-04-03T06:07:37;2.00;1.00;1.00
76304;PMS7003;65111;50.536;19.204;2023-04-03T06:10:04;1.00;1.00;1.00
76304;PMS7003;65111;50.536;19.204;2023-04-03T06:12:31;1.00;1.00;0.33
76304;PMS7003;65111;50.536;19.204;2023-04-03T06:14:57;1.00;1.00;0.00
76304;PMS7003;65111;50.536;19.204;2023-04-03T06:17:23;2.00;1.00;0.00
76304;PMS7003;65111;50.536;19.204;2023-04-03T06:19:50;2.33;2.33;1.00
76304;PMS7003;65111;50.536;19.204;2023-04-03T06:22:16;3.00;1.00;1.00
76304;PMS7003;65111;50.536;19.204;2023-04-03T06:24:42;3.00;1.00;0.00
76304;PMS7003;65111;50.536;19.204;2023-04-03T06:27:09;1.00;1.00;0.67
76304;PMS7003;65111;50.536;19.204;2023-04-03T06:29:36;1.00;1.00;1.00
76304;PMS7003;65111;50.536;19.204;2023-04-03T06:32:02;1.00;1.00;0.00
76304;PMS7003;65111;50.536;19.204;2023-04-03T06:34:28;0.00;0.00;0.00
76304;PMS7003;65111;50.536;19.204;2023-04-03T06:36:54;2.00;2.00;1.00
76304;PMS7003;65111;50.536;19.204;2023-04-03T06:39:21;1.00;1.00;1.00
76304;PMS7003;65111;50.536;19.204;2023-04-03T06:41:48;1.00;0.67;0.67
76304;PMS7003;65111;50.536;19.204;2023-04-03T06:44:16;0.00;0.00;0.00
76304;PMS7003;65111;50.536;19.204;2023-04-03T06:46:43;1.00;1.00;1.00
76304;PMS7003;65111;50.536;19.204;2023-04-03T06:49:10;3.33;1.00;1.00
76304;PMS7003;65111;50.536;19.204;2023-04-03T06:51:36;0.00;0.00;0.00
76304;PMS7003;65111;50.536;19.204;2023-04-03T06:54:03;1.00;1.00;0.67
76304;PMS7003;65111;50.536;19.204;2023-04-03T06:56:31;3.50;0.00;0.00
76304;PMS7003;65111;50.536;19.204;2023-04-03T06:58:57;0.00;0.00;0.00
76304;PMS7003;65111;50.536;19.204;2023-04-03T07:01:24;1.00;1.00;0.00
76304;PMS7003;65111;50.536;19.204;2023-04-03T07:03:53;0.00;0.00;0.00
76304;PMS7003;65111;50.536;19.204;2023-04-03T07:06:20;1.00;1.00;0.50
76304;PMS7003;65111;50.536;19.204;2023-04-03T07:08:47;1.00;1.00;1.00
76304;PMS7003;65111;50.536;19.204;2023-04-03T07:11:14;0.00;0.00;0.00
76304;PMS7003;65111;50.536;19.204;2023-04-03T07:13:41;2.33;1.00;0.00
76304;PMS7003;65111;50.536;19.204;2023-04-03T07:16:07;0.00;0.00;0.00
76304;PMS7003;65111;50.536;19.204;2023-04-03T07:18:34;1.00;1.00;0.00
76304;PMS7003;65111;50.536;19.204;2023-04-03T07:21:01;1.00;1.00;1.00
76304;PMS7003;65111;50.536;19.204;2023-04-03T07:23:27;0.00;0.00;0.00
76304;PMS7003;65111;50.536;19.204;2023-04-03T07:25:54;1.00;1.00;0.50
76304;PMS7003;65111;50.536;19.204;2023-04-03T07:28:20;1.00;1.00;0.00
76304;PMS7003;65111;50.536;19.204;2023-04-03T07:30:52;0.00;0.00;0.00
76304;PMS7003;65111;50.536;19.204;2023-04-03T07:33:20;0.67;0.67;0.00
76304;PMS7003;65111;50.536;19.204;2023-04-03T07:35:49;4.00;1.00;0.50
76304;PMS7003;65111;50.536;19.204;2023-04-03T07:38:16;2.00;0.00;0.00
76304;PMS7003;65111;50.536;19.204;2023-04-03T07:40:47;0.00;0.00;0.00
76304;PMS7003;65111;50.536;19.204;2023-04-03T07:43:15;1.00;1.00;0.00
76304;PMS7003;65111;50.536;19.204;2023-04-03T07:45:43;1.00;1.00;0.00
76304;PMS7003;65111;50.536;19.204;2023-04-03T07:48:12;0.00;0.00;0.00
76304;PMS7003;65111;50.536;19.204;2023-04-03T07:50:42;0.00;0.00;0.00
76304;PMS7003;65111;50.536;19.204;2023-04-03T07:53:09;4.00;1.00;0.00
76304;PMS7003;65111;50.536;19.204;2023-04-03T07:55:36;1.00;1.00;1.00
76304;PMS7003;65111;50.536;19.204;2023-04-03T07:58:09;0.00;0.00;0.00
76304;PMS7003;65111;50.536;19.204;2023-04-03T08:00:36;3.00;3.00;1.00
76304;PMS7003;65111;50.536;19.204;2023-04-03T08:03:02;0.50;0.50;0.00
76304;PMS7003;65111;50.536;19.204;2023-04-03T08:05:29;1.00;0.33;0.00
76304;PMS7003;65111;50.536;19.204;2023-04-03T08:07:55;1.00;1.00;1.00
76304;PMS7003;65111;50.536;19.204;2023-04-03T08:10:21;3.00;1.00;1.00
76304;PMS7003;65111;50.536;19.204;2023-04-03T08:12:47;1.00;1.00;1.00
76304;PMS7003;65111;50.536;19.204;2023-04-03T08:15:14;1.00;1.00;0.00
76304;PMS7003;65111;50.536;19.204;2023-04-03T08:17:40;0.00;0.00;0.00
76304;PMS7003;65111;50.536;19.204;2023-04-03T08:20:06;0.00;0.00;0.00
76304;PMS7003;65111;50.536;19.204;2023-04-03T08:22:35;1.00;1.00;0.33
76304;PMS7003;65111;50.536;19.204;2023-04-03T08:25:01;1.00;1.00;0.50
76304;PMS7003;65111;50.536;19.204;2023-04-03T08:27:27;0.00;0.00;0.00
76304;PMS7003;65111;50.536;19.204;2023-04-03T08:29:54;0.00;0.00;0.00
76304;PMS7003;65111;50.536;19.204;2023-04-03T08:32:20;0.67;0.67;0.67
76304;PMS7003;65111;50.536;19.204;2023-04-03T08:34:47;1.00;1.00;1.00
76304;PMS7003;65111;50.536;19.204;2023-04-03T08:37:13;1.00;1.00;1.00
76304;PMS7003;65111;50.536;19.204;2023-04-03T08:39:41;0.67;0.67;0.33
76304;PMS7003;65111;50.536;19.204;2023-04-03T08:42:14;0.00;0.00;0.00
76304;PMS7003;65111;50.536;19.204;2023-04-03T08:45:07;1.00;1.00;0.00
76304;PMS7003;65111;50.536;19.204;2023-04-03T08:48:12;1.00;1.00;1.00
76304;PMS7003;65111;50.536;19.204;2023-04-03T08:50:51;1.00;1.00;1.00
76304;PMS7003;65111;50.536;19.204;2023-04-03T08:53:21;3.00;1.50;1.00
76304;PMS7003;65111;50.536;19.204;2023-04-03T08:55:53;1.00;1.00;-0.33
76304;PMS7003;65111;50.536;19.204;2023-04-03T09:00:58;0.00;0.00;0.00
76304;PMS7003;65111;50.536;19.204;2023-04-03T09:03:30;1.00;1.00;1.00
76304;PMS7003;65111;50.536;19.204;2023-04-03T09:20:31;1.00;1.00;1.00
76304;PMS7003;65111;50.536;19.204;2023-04-03T09:23:16;1.00;1.00;1.00
76304;PMS7003;65111;50.536;19.204;2023-04-03T09:25:44;0.00;0.00;0.00
76304;PMS7003;65111;50.536;19.204;2023-04-03T09:28:11;0.00;0.00;0.00
76304;PMS7003;65111;50.536;19.204;2023-04-03T09:30:37;1.00;0.00;0.00
76304;PMS7003;65111;50.536;19.204;2023-04-03T09:33:04;0.00;0.00;0.00
76304;PMS7003;65111;50.536;19.204;2023-04-03T09:35:31;0.00;0.00;0.00
76304;PMS7003;65111;50.536;19.204;2023-04-03T09:38:01;0.00;0.00;0.00
76304;PMS7003;65111;50.536;19.204;2023-04-03T09:40:43;1.50;1.50;1.00
76304;PMS7003;65111;50.536;19.204;2023-04-03T09:43:29;0.00;0.00;0.00
76304;PMS7003;65111;50.536;19.204;2023-04-03T09:46:15;3.00;1.00;1.00
76304;PMS7003;65111;50.536;19.204;2023-04-03T09:49:03;1.50;1.00;0.00
76304;PMS7003;65111;50.536;19.204;2023-04-03T09:51:31;0.50;0.50;0.50
76304;PMS7003;65111;50.536;19.204;2023-04-03T09:53:58;1.00;1.00;1.00
76304;PMS7003;65111;50.536;19.204;2023-04-03T09:56:25;1.00;1.00;1.00
76304;PMS7003;65111;50.536;19.204;2023-04-03T10:01:29;3.00;1.00;1.00
76304;PMS7003;65111;50.536;19.204;2023-04-03T10:04:08;1.00;1.00;1.00
76304;PMS7003;65111;50.536;19.204;2023-04-03T10:06:40;4.00;1.00;1.00
76304;PMS7003;65111;50.536;19.204;2023-04-03T10:09:25;1.00;1.00;1.00
76304;PMS7003;65111;50.536;19.204;2023-04-03T10:11:57;3.00;1.50;1.00
76304;PMS7003;65111;50.536;19.204;2023-04-03T10:14:27;0.00;0.00;0.00
76304;PMS7003;65111;50.536;19.204;2023-04-03T10:19:36;0.50;0.50;0.50
76304;PMS7003;65111;50.536;19.204;2023-04-03T10:22:23;0.00;0.00;0.00
76304;PMS7003;65111;50.536;19.204;2023-04-03T10:28:18;0.00;0.00;0.00
76304;PMS7003;65111;50.536;19.204;2023-04-03T10:30:48;2.00;0.00;0.00
76304;PMS7003;65111;50.536;19.204;2023-04-03T10:36:24;0.67;0.67;0.00
76304;PMS7003;65111;50.536;19.204;2023-04-03T10:41:46;0.00;0.00;0.00
76304;PMS7003;65111;50.536;19.204;2023-04-03T10:47:10;0.50;0.00;0.00
76304;PMS7003;65111;50.536;19.204;2023-04-03T10:52:31;0.50;0.50;0.50
76304;PMS7003;65111;50.536;19.204;2023-04-03T10:57:59;1.00;1.00;1.00
76304;PMS7003;65111;50.536;19.204;2023-04-03T11:03:05;1.00;1.00;1.00
76304;PMS7003;65111;50.536;19.204;2023-04-03T11:05:43;2.00;2.00;2.00
76304;PMS7003;65111;50.536;19.204;2023-04-03T11:10:57;1.00;1.00;1.00
76304;PMS7003;65111;50.536;19.204;2023-04-03T11:13:30;2.00;1.00;1.00
76304;PMS7003;65111;50.536;19.204;2023-04-03T11:16:01;2.50;1.00;1.00
76304;PMS7003;65111;50.536;19.204;2023-04-03T11:18:37;2.67;1.00;0.67
76304;PMS7003;65111;50.536;19.204;2023-04-03T11:23:56;0.50;0.00;0.00
76304;PMS7003;65111;50.536;19.204;2023-04-03T11:26:31;0.50;0.50;0.50
76304;PMS7003;65111;50.536;19.204;2023-04-03T11:29:03;4.00;2.00;1.00
76304;PMS7003;65111;50.536;19.204;2023-04-03T11:34:08;1.00;1.00;0.00
76304;PMS7003;65111;50.536;19.204;2023-04-03T11:36:50;3.00;1.00;1.00
76304;PMS7003;65111;50.536;19.204;2023-04-03T11:39:24;3.00;1.00;1.00
76304;PMS7003;65111;50.536;19.204;2023-04-03T11:42:40;0.00;0.00;0.00
76304;PMS7003;65111;50.536;19.204;2023-04-03T11:47:53;1.00;1.00;0.00
76304;PMS7003;65111;50.536;19.204;2023-04-03T12:05:51;1.00;1.00;1.00
76304;PMS7003;65111;50.536;19.204;2023-04-03T12:16:24;1.00;1.00;1.00
76304;PMS7003;65111;50.536;19.204;2023-04-03T12:46:17;1.00;1.00;1.00
76304;PMS7003;65111;50.536;19.204;2023-04-03T12:51:20;2.00;2.00;2.00
76304;PMS7003;65111;50.536;19.204;2023-04-03T12:53:56;2.00;1.00;1.00
76304;PMS7003;65111;50.536;19.204;2023-04-03T12:56:28;1.00;1.00;0.50
76304;PMS7003;65111;50.536;19.204;2023-04-03T12:59:19;4.33;4.33;3.33
76304;PMS7003;65111;50.536;19.204;2023-04-03T13:01:56;1.00;1.00;1.00
76304;PMS7003;65111;50.536;19.204;2023-04-03T13:04:24;2.00;2.00;1.00
76304;PMS7003;65111;50.536;19.204;2023-04-03T13:06:51;1.00;1.00;1.00
76304;PMS7003;65111;50.536;19.204;2023-04-03T13:09:25;1.50;1.50;1.50
76304;PMS7003;65111;50.536;19.204;2023-04-03T13:12:15;1.00;1.00;1.00
76304;PMS7003;65111;50.536;19.204;2023-04-03T13:14:51;1.00;1.00;1.00
76304;PMS7003;65111;50.536;19.204;2023-04-03T13:17:24;1.00;1.00;1.00
76304;PMS7003;65111;50.536;19.204;2023-04-03T13:19:51;2.00;2.00;1.00
76304;PMS7003;65111;50.536;19.204;2023-04-03T13:22:33;2.00;2.00;1.00
76304;PMS7003;65111;50.536;19.204;2023-04-03T13:25:05;1.00;1.00;1.00
76304;PMS7003;65111;50.536;19.204;2023-04-03T13:27:34;4.00;1.67;1.00
76304;PMS7003;65111;50.536;19.204;2023-04-03T13:30:00;7.00;4.00;4.00
76304;PMS7003;65111;50.536;19.204;2023-04-03T13:32:30;4.00;4.00;2.00
76304;PMS7003;65111;50.536;19.204;2023-04-03T13:34:57;2.00;2.00;2.00
76304;PMS7003;65111;50.536;19.204;2023-04-03T13:37:32;2.00;1.00;1.00
76304;PMS7003;65111;50.536;19.204;2023-04-03T13:40:10;1.00;1.00;1.00
76304;PMS7003;65111;50.536;19.204;2023-04-03T13:42:38;1.00;1.00;1.00
76304;PMS7003;65111;50.536;19.204;2023-04-03T13:47:39;3.00;2.00;1.00
76304;PMS7003;65111;50.536;19.204;2023-04-03T13:53:09;4.00;4.00;2.00
76304;PMS7003;65111;50.536;19.204;2023-04-03T13:55:51;1.00;1.00;1.00
76304;PMS7003;65111;50.536;19.204;2023-04-03T13:58:31;2.00;1.00;0.50
76304;PMS7003;65111;50.536;19.204;2023-04-03T14:01:20;4.00;1.50;1.00
76304;PMS7003;65111;50.536;19.204;2023-04-03T14:03:55;1.00;1.00;0.00
76304;PMS7003;65111;50.536;19.204;2023-04-03T14:06:23;2.00;2.00;1.00
76304;PMS7003;65111;50.536;19.204;2023-04-03T14:08:50;1.00;0.00;-0.50
76304;PMS7003;65111;50.536;19.204;2023-04-03T14:11:18;1.00;1.00;1.00
76304;PMS7003;65111;50.536;19.204;2023-04-03T14:13:48;2.50;1.00;1.00
76304;PMS7003;65111;50.536;19.204;2023-04-03T14:16:19;1.50;1.00;0.50
76304;PMS7003;65111;50.536;19.204;2023-04-03T14:18:49;3.00;1.00;1.00
76304;PMS7003;65111;50.536;19.204;2023-04-03T14:21:17;1.50;1.00;1.00
76304;PMS7003;65111;50.536;19.204;2023-04-03T14:23:44;2.00;2.00;2.00
76304;PMS7003;65111;50.536;19.204;2023-04-03T14:26:12;2.33;2.33;1.00
76304;PMS7003;65111;50.536;19.204;2023-04-03T14:28:42;4.00;1.00;1.00
76304;PMS7003;65111;50.536;19.204;2023-04-03T14:31:09;1.00;1.00;0.33
76304;PMS7003;65111;50.536;19.204;2023-04-03T14:33:36;0.00;0.00;0.00
76304;PMS7003;65111;50.536;19.204;2023-04-03T14:36:16;0.00;0.00;0.00
76304;PMS7003;65111;50.536;19.204;2023-04-03T14:38:46;3.00;0.00;0.00
76304;PMS7003;65111;50.536;19.204;2023-04-03T14:41:14;1.00;0.00;0.00
76304;PMS7003;65111;50.536;19.204;2023-04-03T14:43:42;3.50;1.00;0.50
76304;PMS7003;65111;50.536;19.204;2023-04-03T14:46:12;3.00;1.00;1.00
76304;PMS7003;65111;50.536;19.204;2023-04-03T14:48:41;1.00;1.00;1.00
76304;PMS7003;65111;50.536;19.204;2023-04-03T14:51:11;1.00;1.00;1.00
76304;PMS7003;65111;50.536;19.204;2023-04-03T14:53:38;3.00;1.00;0.50
76304;PMS7003;65111;50.536;19.204;2023-04-03T14:56:13;3.00;3.00;3.00
76304;PMS7003;65111;50.536;19.204;2023-04-03T14:58:44;3.00;3.00;1.00
76304;PMS7003;65111;50.536;19.204;2023-04-03T15:01:14;2.00;2.00;1.00
76304;PMS7003;65111;50.536;19.204;2023-04-03T15:03:40;0.00;0.00;0.00
76304;PMS7003;65111;50.536;19.204;2023-04-03T15:06:07;1.00;1.00;0.00
76304;PMS7003;65111;50.536;19.204;2023-04-03T15:08:36;6.50;6.50;4.00
76304;PMS7003;65111;50.536;19.204;2023-04-03T15:11:03;3.00;3.00;3.00
76304;PMS7003;65111;50.536;19.204;2023-04-03T15:13:29;4.00;3.00;1.00
76304;PMS7003;65111;50.536;19.204;2023-04-03T15:15:55;0.00;0.00;0.00
76304;PMS7003;65111;50.536;19.204;2023-04-03T15:18:22;3.00;3.00;1.00
76304;PMS7003;65111;50.536;19.204;2023-04-03T15:20:54;0.50;0.00;0.00
76304;PMS7003;65111;50.536;19.204;2023-04-03T15:23:20;1.67;1.67;1.00
76304;PMS7003;65111;50.536;19.204;2023-04-03T15:25:51;4.00;4.00;3.00
76304;PMS7003;65111;50.536;19.204;2023-04-03T15:28:23;3.00;1.00;1.00
76304;PMS7003;65111;50.536;19.204;2023-04-03T15:30:59;4.00;1.00;0.00
76304;PMS7003;65111;50.536;19.204;2023-04-03T15:33:25;1.00;1.00;0.00
76304;PMS7003;65111;50.536;19.204;2023-04-03T15:35:52;3.00;1.00;1.00
76304;PMS7003;65111;50.536;19.204;2023-04-03T15:38:19;0.33;0.33;0.33
76304;PMS7003;65111;50.536;19.204;2023-04-03T15:40:45;3.00;3.00;1.00
76304;PMS7003;65111;50.536;19.204;2023-04-03T15:43:12;1.00;1.00;0.00
76304;PMS7003;65111;50.536;19.204;2023-04-03T15:45:39;2.33;2.33;1.00
76304;PMS7003;65111;50.536;19.204;2023-04-03T15:48:06;1.00;1.00;1.00
76304;PMS7003;65111;50.536;19.204;2023-04-03T15:50:33;1.00;1.00;0.50
76304;PMS7003;65111;50.536;19.204;2023-04-03T15:53:00;10.33;5.33;3.67
76304;PMS7003;65111;50.536;19.204;2023-04-03T15:55:31;0.00;0.00;0.00
76304;PMS7003;65111;50.536;19.204;2023-04-03T15:58:00;0.00;0.00;0.00
76304;PMS7003;65111;50.536;19.204;2023-04-03T16:00:26;1.00;0.00;0.00
76304;PMS7003;65111;50.536;19.204;2023-04-03T16:03:00;0.00;0.00;0.00
76304;PMS7003;65111;50.536;19.204;2023-04-03T16:05:30;4.00;3.00;1.00
76304;PMS7003;65111;50.536;19.204;2023-04-03T16:07:58;0.00;0.00;0.00
76304;PMS7003;65111;50.536;19.204;2023-04-03T16:10:26;0.00;0.00;0.00
76304;PMS7003;65111;50.536;19.204;2023-04-03T16:12:52;0.00;0.00;0.00
76304;PMS7003;65111;50.536;19.204;2023-04-03T16:15:18;1.00;1.00;1.00
76304;PMS7003;65111;50.536;19.204;2023-04-03T16:17:45;3.00;0.00;0.00